sensor_id;sensor_type;location;lat;lon;timestamp;temperature;humidity
27619;DHT22;15039;50.830;4.730;2022-10-29T00:02:24;17.90;99.90
27619;DHT22;15039;50.830;4.730;2022-10-29T00:04:50;17.90;99.90
27619;DHT22;15039;50.830;4.730;2022-10-29T00:07:15;17.90;99.90
27619;DHT22;15039;50.830;4.730;2022-10-29T00:09:41;17.80;99.90
27619;DHT22;15039;50.830;4.730;2022-10-29T00:12:07;17.70;99.90
27619;DHT22;15039;50.830;4.730;2022-10-29T00:14:32;17.70;99.90
27619;DHT22;15039;50.830;4.730;2022-10-29T00:16:58;17.70;99.90
27619;DHT22;15039;50.830;4.730;2022-10-29T00:19:24;17.70;99.90
27619;DHT22;15039;50.830;4.730;2022-10-29T00:21:50;17.70;99.90
27619;DHT22;15039;50.830;4.730;2022-10-29T00:24:16;17.60;99.90
27619;DHT22;15039;50.830;4.730;2022-10-29T00:26:41;17.60;99.90
27619;DHT22;15039;50.830;4.730;2022-10-29T00:29:07;17.40;99.90
27619;DHT22;15039;50.830;4.730;2022-10-29T00:31:35;17.30;99.90
27619;DHT22;15039;50.830;4.730;2022-10-29T00:34:01;17.30;99.90
27619;DHT22;15039;50.830;4.730;2022-10-29T00:36:28;17.40;99.90
27619;DHT22;15039;50.830;4.730;2022-10-29T00:38:54;17.40;99.90
27619;DHT22;15039;50.830;4.730;2022-10-29T00:41:24;17.40;99.90
27619;DHT22;15039;50.830;4.730;2022-10-29T00:46:56;17.30;99.90
27619;DHT22;15039;50.830;4.730;2022-10-29T00:49:22;17.20;99.90
27619;DHT22;15039;50.830;4.730;2022-10-29T00:51:50;17.20;99.90
27619;DHT22;15039;50.830;4.730;2022-10-29T00:54:16;17.10;99.90
27619;DHT22;15039;50.830;4.730;2022-10-29T00:56:48;17.10;99.90
27619;DHT22;15039;50.830;4.730;2022-10-29T00:59:15;17.10;99.90
27619;DHT22;15039;50.830;4.730;2022-10-29T01:01:43;17.10;99.90
27619;DHT22;15039;50.830;4.730;2022-10-29T01:04:10;17.10;99.90
27619;DHT22;15039;50.830;4.730;2022-10-29T01:06:36;17.00;99.90
27619;DHT22;15039;50.830;4.730;2022-10-29T01:09:03;17.00;99.90
27619;DHT22;15039;50.830;4.730;2022-10-29T01:11:49;16.90;99.90
27619;DHT22;15039;50.830;4.730;2022-10-29T01:14:28;16.80;99.90
27619;DHT22;15039;50.830;4.730;2022-10-29T01:22:31;16.60;99.90
27619;DHT22;15039;50.830;4.730;2022-10-29T01:30:56;16.90;99.90
27619;DHT22;15039;50.830;4.730;2022-10-29T01:42:00;16.50;99.90
27619;DHT22;15039;50.830;4.730;2022-10-29T01:47:30;16.50;99.90
27619;DHT22;15039;50.830;4.730;2022-10-29T01:50:01;16.40;99.90
27619;DHT22;15039;50.830;4.730;2022-10-29T01:52:29;16.40;99.90
27619;DHT22;15039;50.830;4.730;2022-10-29T01:54:56;16.40;99.90
27619;DHT22;15039;50.830;4.730;2022-10-29T01:57:35;16.40;99.90
27619;DHT22;15039;50.830;4.730;2022-10-29T02:00:15;16.40;99.90
27619;DHT22;15039;50.830;4.730;2022-10-29T02:02:48;16.50;99.90
27619;DHT22;15039;50.830;4.730;2022-10-29T02:08:27;16.40;99.90
27619;DHT22;15039;50.830;4.730;2022-10-29T02:11:14;16.30;99.90
27619;DHT22;15039;50.830;4.730;2022-10-29T02:14:06;16.20;99.90
27619;DHT22;15039;50.830;4.730;2022-10-29T02:16:34;16.30;99.90
27619;DHT22;15039;50.830;4.730;2022-10-29T02:19:00;16.60;99.90
27619;DHT22;15039;50.830;4.730;2022-10-29T02:21:25;16.50;99.90
27619;DHT22;15039;50.830;4.730;2022-10-29T02:23:51;16.50;99.90
27619;DHT22;15039;50.830;4.730;2022-10-29T02:26:17;16.30;99.90
27619;DHT22;15039;50.830;4.730;2022-10-29T02:28:43;16.00;99.90
27619;DHT22;15039;50.830;4.730;2022-10-29T02:31:09;15.90;99.90
27619;DHT22;15039;50.830;4.730;2022-10-29T02:33:35;15.80;99.90
27619;DHT22;15039;50.830;4.730;2022-10-29T02:36:01;15.90;99.90
27619;DHT22;15039;50.830;4.730;2022-10-29T02:38:26;16.00;99.90
27619;DHT22;15039;50.830;4.730;2022-10-29T02:40:52;16.00;99.90
27619;DHT22;15039;50.830;4.730;2022-10-29T02:43:18;16.10;99.90
27619;DHT22;15039;50.830;4.730;2022-10-29T02:45:43;16.30;99.90
27619;DHT22;15039;50.830;4.730;2022-10-29T02:48:09;16.30;99.90
27619;DHT22;15039;50.830;4.730;2022-10-29T02:50:35;16.20;99.90
27619;DHT22;15039;50.830;4.730;2022-10-29T02:53:00;16.10;99.90
27619;DHT22;15039;50.830;4.730;2022-10-29T02:55:26;16.10;99.90
27619;DHT22;15039;50.830;4.730;2022-10-29T02:57:51;15.90;99.90
27619;DHT22;15039;50.830;4.730;2022-10-29T03:00:17;15.90;99.90
27619;DHT22;15039;50.830;4.730;2022-10-29T03:02:43;15.80;99.90
27619;DHT22;15039;50.830;4.730;2022-10-29T03:05:09;15.80;99.90
27619;DHT22;15039;50.830;4.730;2022-10-29T03:07:35;15.80;99.90
27619;DHT22;15039;50.830;4.730;2022-10-29T03:10:03;15.80;99.90
27619;DHT22;15039;50.830;4.730;2022-10-29T03:12:29;15.90;99.90
27619;DHT22;15039;50.830;4.730;2022-10-29T03:14:55;15.90;99.90
27619;DHT22;15039;50.830;4.730;2022-10-29T03:17:20;15.80;99.90
27619;DHT22;15039;50.830;4.730;2022-10-29T03:19:46;15.90;99.90
27619;DHT22;15039;50.830;4.730;2022-10-29T03:22:11;15.90;99.90
27619;DHT22;15039;50.830;4.730;2022-10-29T03:24:37;16.20;99.90
27619;DHT22;15039;50.830;4.730;2022-10-29T03:27:03;16.30;99.90
27619;DHT22;15039;50.830;4.730;2022-10-29T03:29:28;16.10;99.90
27619;DHT22;15039;50.830;4.730;2022-10-29T03:31:54;16.00;99.90
27619;DHT22;15039;50.830;4.730;2022-10-29T03:34:20;16.00;99.90
27619;DHT22;15039;50.830;4.730;2022-10-29T03:36:45;16.20;99.90
27619;DHT22;15039;50.830;4.730;2022-10-29T03:39:11;16.20;99.90
27619;DHT22;15039;50.830;4.730;2022-10-29T03:41:36;16.20;99.90
27619;DHT22;15039;50.830;4.730;2022-10-29T03:44:02;16.30;99.90
27619;DHT22;15039;50.830;4.730;2022-10-29T03:46:28;16.40;99.90
27619;DHT22;15039;50.830;4.730;2022-10-29T03:48:53;16.30;99.90
27619;DHT22;15039;50.830;4.730;2022-10-29T03:51:19;16.20;99.90
27619;DHT22;15039;50.830;4.730;2022-10-29T03:53:45;16.20;99.90
27619;DHT22;15039;50.830;4.730;2022-10-29T03:56:10;16.20;99.90
27619;DHT22;15039;50.830;4.730;2022-10-29T03:58:36;16.20;99.90
27619;DHT22;15039;50.830;4.730;2022-10-29T04:01:04;16.10;99.90
27619;DHT22;15039;50.830;4.730;2022-10-29T04:03:31;16.10;99.90
27619;DHT22;15039;50.830;4.730;2022-10-29T04:05:59;16.20;99.90
27619;DHT22;15039;50.830;4.730;2022-10-29T04:08:25;16.20;99.90
27619;DHT22;15039;50.830;4.730;2022-10-29T04:10:51;16.30;99.90
27619;DHT22;15039;50.830;4.730;2022-10-29T04:13:17;16.40;99.90
27619;DHT22;15039;50.830;4.730;2022-10-29T04:15:43;16.40;99.90
27619;DHT22;15039;50.830;4.730;2022-10-29T04:18:09;16.40;99.90
27619;DHT22;15039;50.830;4.730;2022-10-29T04:20:37;16.40;99.90
27619;DHT22;15039;50.830;4.730;2022-10-29T04:23:03;16.30;99.90
27619;DHT22;15039;50.830;4.730;2022-10-29T04:25:28;16.40;99.90
27619;DHT22;15039;50.830;4.730;2022-10-29T04:27:55;16.30;99.90
27619;DHT22;15039;50.830;4.730;2022-10-29T04:30:24;16.40;99.90
27619;DHT22;15039;50.830;4.730;2022-10-29T04:32:49;16.30;99.90
27619;DHT22;15039;50.830;4.730;2022-10-29T04:35:15;16.30;99.90
27619;DHT22;15039;50.830;4.730;2022-10-29T04:37:41;16.30;99.90
27619;DHT22;15039;50.830;4.730;2022-10-29T04:40:07;16.30;99.90
27619;DHT22;15039;50.830;4.730;2022-10-29T04:42:37;16.40;99.90
27619;DHT22;15039;50.830;4.730;2022-10-29T04:45:04;16.60;99.90
27619;DHT22;15039;50.830;4.730;2022-10-29T04:47:30;16.70;99.90
27619;DHT22;15039;50.830;4.730;2022-10-29T04:49:55;16.80;99.90
27619;DHT22;15039;50.830;4.730;2022-10-29T04:52:21;16.90;99.90
27619;DHT22;15039;50.830;4.730;2022-10-29T04:54:47;16.80;99.90
27619;DHT22;15039;50.830;4.730;2022-10-29T04:57:12;16.70;99.90
27619;DHT22;15039;50.830;4.730;2022-10-29T04:59:38;16.70;99.90
27619;DHT22;15039;50.830;4.730;2022-10-29T05:02:03;16.70;99.90
27619;DHT22;15039;50.830;4.730;2022-10-29T05:04:29;16.70;99.90
27619;DHT22;15039;50.830;4.730;2022-10-29T05:06:55;16.70;99.90
27619;DHT22;15039;50.830;4.730;2022-10-29T05:09:20;16.70;99.90
27619;DHT22;15039;50.830;4.730;2022-10-29T05:11:46;16.60;99.90
27619;DHT22;15039;50.830;4.730;2022-10-29T05:14:12;16.70;99.90
27619;DHT22;15039;50.830;4.730;2022-10-29T05:16:37;16.60;99.90
27619;DHT22;15039;50.830;4.730;2022-10-29T05:19:03;16.70;99.90
27619;DHT22;15039;50.830;4.730;2022-10-29T05:21:30;16.60;99.90
27619;DHT22;15039;50.830;4.730;2022-10-29T05:23:56;16.60;99.90
27619;DHT22;15039;50.830;4.730;2022-10-29T05:26:21;16.80;99.90
27619;DHT22;15039;50.830;4.730;2022-10-29T05:28:50;16.80;99.90
27619;DHT22;15039;50.830;4.730;2022-10-29T05:31:17;16.80;99.90
27619;DHT22;15039;50.830;4.730;2022-10-29T05:33:42;16.90;99.90
27619;DHT22;15039;50.830;4.730;2022-10-29T05:36:08;17.00;99.90
27619;DHT22;15039;50.830;4.730;2022-10-29T05:38:34;17.00;99.90
27619;DHT22;15039;50.830;4.730;2022-10-29T05:41:00;16.90;99.90
27619;DHT22;15039;50.830;4.730;2022-10-29T05:43:26;16.90;99.90
27619;DHT22;15039;50.830;4.730;2022-10-29T05:45:52;16.80;99.90
27619;DHT22;15039;50.830;4.730;2022-10-29T05:48:18;16.70;99.90
27619;DHT22;15039;50.830;4.730;2022-10-29T05:50:43;16.70;99.90
27619;DHT22;15039;50.830;4.730;2022-10-29T05:53:13;16.70;99.90
27619;DHT22;15039;50.830;4.730;2022-10-29T05:55:40;16.60;99.90
27619;DHT22;15039;50.830;4.730;2022-10-29T05:58:09;16.50;99.90
27619;DHT22;15039;50.830;4.730;2022-10-29T06:00:38;16.40;99.90
27619;DHT22;15039;50.830;4.730;2022-10-29T06:03:12;16.30;99.90
27619;DHT22;15039;50.830;4.730;2022-10-29T06:05:38;16.20;99.90
27619;DHT22;15039;50.830;4.730;2022-10-29T06:08:03;16.20;99.90
27619;DHT22;15039;50.830;4.730;2022-10-29T06:10:29;16.10;99.90
27619;DHT22;15039;50.830;4.730;2022-10-29T06:12:54;16.00;99.90
27619;DHT22;15039;50.830;4.730;2022-10-29T06:15:20;15.90;99.90
27619;DHT22;15039;50.830;4.730;2022-10-29T06:17:47;15.80;99.90
27619;DHT22;15039;50.830;4.730;2022-10-29T06:20:15;15.70;99.90
27619;DHT22;15039;50.830;4.730;2022-10-29T06:22:41;15.60;99.90
27619;DHT22;15039;50.830;4.730;2022-10-29T06:25:07;15.50;99.90
27619;DHT22;15039;50.830;4.730;2022-10-29T06:27:32;15.50;99.90
27619;DHT22;15039;50.830;4.730;2022-10-29T06:29:58;15.50;99.90
27619;DHT22;15039;50.830;4.730;2022-10-29T06:32:23;15.40;99.90
27619;DHT22;15039;50.830;4.730;2022-10-29T06:34:49;15.50;99.90
27619;DHT22;15039;50.830;4.730;2022-10-29T06:37:15;15.50;99.90
27619;DHT22;15039;50.830;4.730;2022-10-29T06:39:41;15.50;99.90
27619;DHT22;15039;50.830;4.730;2022-10-29T06:42:06;15.50;99.90
27619;DHT22;15039;50.830;4.730;2022-10-29T06:44:32;15.50;99.90
27619;DHT22;15039;50.830;4.730;2022-10-29T06:46:57;15.50;99.90
27619;DHT22;15039;50.830;4.730;2022-10-29T06:49:23;15.50;99.90
27619;DHT22;15039;50.830;4.730;2022-10-29T06:51:48;15.50;99.90
27619;DHT22;15039;50.830;4.730;2022-10-29T06:54:14;15.50;99.90
27619;DHT22;15039;50.830;4.730;2022-10-29T06:56:40;15.40;99.90
27619;DHT22;15039;50.830;4.730;2022-10-29T06:59:05;15.40;99.90
27619;DHT22;15039;50.830;4.730;2022-10-29T07:01:31;15.40;99.90
27619;DHT22;15039;50.830;4.730;2022-10-29T07:04:01;15.40;99.90
27619;DHT22;15039;50.830;4.730;2022-10-29T07:06:27;15.40;99.90
27619;DHT22;15039;50.830;4.730;2022-10-29T07:08:53;15.40;99.90
27619;DHT22;15039;50.830;4.730;2022-10-29T07:11:18;15.40;99.90
27619;DHT22;15039;50.830;4.730;2022-10-29T07:13:44;15.50;99.90
27619;DHT22;15039;50.830;4.730;2022-10-29T07:16:09;15.60;99.90
27619;DHT22;15039;50.830;4.730;2022-10-29T07:18:35;15.60;99.90
27619;DHT22;15039;50.830;4.730;2022-10-29T07:21:02;15.60;99.90
27619;DHT22;15039;50.830;4.730;2022-10-29T07:23:28;15.60;99.90
27619;DHT22;15039;50.830;4.730;2022-10-29T07:25:54;15.70;99.90
27619;DHT22;15039;50.830;4.730;2022-10-29T07:28:20;15.80;99.90
27619;DHT22;15039;50.830;4.730;2022-10-29T07:30:48;15.80;99.90
27619;DHT22;15039;50.830;4.730;2022-10-29T07:33:14;15.90;99.90
27619;DHT22;15039;50.830;4.730;2022-10-29T07:35:40;16.00;99.90
27619;DHT22;15039;50.830;4.730;2022-10-29T07:38:07;16.10;99.90
27619;DHT22;15039;50.830;4.730;2022-10-29T07:40:33;16.20;99.90
27619;DHT22;15039;50.830;4.730;2022-10-29T07:42:59;16.20;99.90
27619;DHT22;15039;50.830;4.730;2022-10-29T07:45:25;16.20;99.90
27619;DHT22;15039;50.830;4.730;2022-10-29T07:48:05;16.30;99.90
27619;DHT22;15039;50.830;4.730;2022-10-29T07:50:32;16.30;99.90
27619;DHT22;15039;50.830;4.730;2022-10-29T07:52:59;16.40;99.90
27619;DHT22;15039;50.830;4.730;2022-10-29T07:55:25;16.50;99.90
27619;DHT22;15039;50.830;4.730;2022-10-29T07:57:57;16.60;99.90
27619;DHT22;15039;50.830;4.730;2022-10-29T08:00:26;16.70;99.90
27619;DHT22;15039;50.830;4.730;2022-10-29T08:02:55;16.80;99.90
27619;DHT22;15039;50.830;4.730;2022-10-29T08:05:21;17.00;99.90
27619;DHT22;15039;50.830;4.730;2022-10-29T08:07:47;17.20;99.90
27619;DHT22;15039;50.830;4.730;2022-10-29T08:10:13;17.40;99.90
27619;DHT22;15039;50.830;4.730;2022-10-29T08:12:39;17.60;99.90
27619;DHT22;15039;50.830;4.730;2022-10-29T08:15:05;17.70;99.90
27619;DHT22;15039;50.830;4.730;2022-10-29T08:17:31;17.70;99.90
27619;DHT22;15039;50.830;4.730;2022-10-29T08:19:57;17.70;99.90
27619;DHT22;15039;50.830;4.730;2022-10-29T08:22:22;17.80;99.90
27619;DHT22;15039;50.830;4.730;2022-10-29T08:24:48;17.90;99.90
27619;DHT22;15039;50.830;4.730;2022-10-29T08:27:13;17.90;99.90
27619;DHT22;15039;50.830;4.730;2022-10-29T08:29:39;18.00;99.90
27619;DHT22;15039;50.830;4.730;2022-10-29T08:32:05;18.10;99.90
27619;DHT22;15039;50.830;4.730;2022-10-29T08:34:30;18.10;99.90
27619;DHT22;15039;50.830;4.730;2022-10-29T08:36:56;18.20;99.90
27619;DHT22;15039;50.830;4.730;2022-10-29T08:39:21;18.20;99.90
27619;DHT22;15039;50.830;4.730;2022-10-29T08:45:38;18.10;99.90
27619;DHT22;15039;50.830;4.730;2022-10-29T08:48:06;18.10;99.90
27619;DHT22;15039;50.830;4.730;2022-10-29T08:50:44;18.10;99.90
27619;DHT22;15039;50.830;4.730;2022-10-29T08:53:19;18.30;99.90
27619;DHT22;15039;50.830;4.730;2022-10-29T08:55:46;18.40;99.90
27619;DHT22;15039;50.830;4.730;2022-10-29T08:58:23;18.60;99.90
27619;DHT22;15039;50.830;4.730;2022-10-29T09:00:54;18.70;99.90
27619;DHT22;15039;50.830;4.730;2022-10-29T09:03:21;18.80;99.90
27619;DHT22;15039;50.830;4.730;2022-10-29T09:06:05;19.00;99.90
27619;DHT22;15039;50.830;4.730;2022-10-29T09:08:38;19.20;99.90
27619;DHT22;15039;50.830;4.730;2022-10-29T09:21:28;19.50;99.90
27619;DHT22;15039;50.830;4.730;2022-10-29T09:29:31;19.90;99.90
27619;DHT22;15039;50.830;4.730;2022-10-29T09:32:03;20.00;99.90
27619;DHT22;15039;50.830;4.730;2022-10-29T09:34:47;20.00;99.90
27619;DHT22;15039;50.830;4.730;2022-10-29T09:37:18;20.20;99.90
27619;DHT22;15039;50.830;4.730;2022-10-29T09:39:46;20.40;99.90
27619;DHT22;15039;50.830;4.730;2022-10-29T09:42:19;20.50;99.90
27619;DHT22;15039;50.830;4.730;2022-10-29T09:44:55;20.60;99.90
27619;DHT22;15039;50.830;4.730;2022-10-29T09:52:42;20.90;99.90
27619;DHT22;15039;50.830;4.730;2022-10-29T09:55:38;21.00;99.90
27619;DHT22;15039;50.830;4.730;2022-10-29T09:58:05;21.00;99.90
27619;DHT22;15039;50.830;4.730;2022-10-29T10:00:32;21.00;99.90
27619;DHT22;15039;50.830;4.730;2022-10-29T10:05:34;21.00;99.90
27619;DHT22;15039;50.830;4.730;2022-10-29T10:08:10;20.90;99.90
27619;DHT22;15039;50.830;4.730;2022-10-29T10:11:00;21.10;99.90
27619;DHT22;15039;50.830;4.730;2022-10-29T10:13:37;21.10;99.90
27619;DHT22;15039;50.830;4.730;2022-10-29T10:16:22;21.20;99.90
27619;DHT22;15039;50.830;4.730;2022-10-29T10:18:49;21.30;99.90
27619;DHT22;15039;50.830;4.730;2022-10-29T10:21:30;21.40;99.90
27619;DHT22;15039;50.830;4.730;2022-10-29T10:23:57;21.70;99.90
27619;DHT22;15039;50.830;4.730;2022-10-29T10:29:19;21.80;99.90
27619;DHT22;15039;50.830;4.730;2022-10-29T10:34:34;21.80;99.90
27619;DHT22;15039;50.830;4.730;2022-10-29T10:42:05;22.00;99.90
27619;DHT22;15039;50.830;4.730;2022-10-29T10:44:41;21.90;99.90
27619;DHT22;15039;50.830;4.730;2022-10-29T10:47:11;22.00;99.90
27619;DHT22;15039;50.830;4.730;2022-10-29T10:49:38;22.20;99.90
27619;DHT22;15039;50.830;4.730;2022-10-29T10:52:27;22.30;99.90
27619;DHT22;15039;50.830;4.730;2022-10-29T10:57:26;22.40;99.90
27619;DHT22;15039;50.830;4.730;2022-10-29T11:00:04;22.40;99.90
27619;DHT22;15039;50.830;4.730;2022-10-29T11:05:20;22.60;99.90
27619;DHT22;15039;50.830;4.730;2022-10-29T11:10:30;22.80;99.90
27619;DHT22;15039;50.830;4.730;2022-10-29T11:13:01;22.90;99.90
27619;DHT22;15039;50.830;4.730;2022-10-29T11:15:56;23.20;99.90
27619;DHT22;15039;50.830;4.730;2022-10-29T11:18:28;23.40;99.90
27619;DHT22;15039;50.830;4.730;2022-10-29T11:23:41;23.30;99.90
27619;DHT22;15039;50.830;4.730;2022-10-29T11:26:14;23.40;99.90
27619;DHT22;15039;50.830;4.730;2022-10-29T11:29:14;23.30;99.90
27619;DHT22;15039;50.830;4.730;2022-10-29T11:35:02;23.60;99.90
27619;DHT22;15039;50.830;4.730;2022-10-29T11:37:51;23.60;99.90
27619;DHT22;15039;50.830;4.730;2022-10-29T11:40:46;23.50;99.90
27619;DHT22;15039;50.830;4.730;2022-10-29T11:43:17;23.50;99.90
27619;DHT22;15039;50.830;4.730;2022-10-29T11:51:30;23.60;99.90
27619;DHT22;15039;50.830;4.730;2022-10-29T11:56:43;23.80;99.90
27619;DHT22;15039;50.830;4.730;2022-10-29T12:02:24;23.80;99.90
27619;DHT22;15039;50.830;4.730;2022-10-29T12:10:46;24.20;99.90
27619;DHT22;15039;50.830;4.730;2022-10-29T12:13:37;24.30;99.90
27619;DHT22;15039;50.830;4.730;2022-10-29T12:18:58;24.30;99.90
27619;DHT22;15039;50.830;4.730;2022-10-29T12:30:14;24.00;99.90
27619;DHT22;15039;50.830;4.730;2022-10-29T12:35:21;23.80;99.90
27619;DHT22;15039;50.830;4.730;2022-10-29T12:40:45;23.80;99.90
27619;DHT22;15039;50.830;4.730;2022-10-29T12:43:35;23.90;99.90
27619;DHT22;15039;50.830;4.730;2022-10-29T12:46:18;24.00;99.90
27619;DHT22;15039;50.830;4.730;2022-10-29T12:51:47;24.30;99.90
27619;DHT22;15039;50.830;4.730;2022-10-29T12:54:37;24.50;99.90
27619;DHT22;15039;50.830;4.730;2022-10-29T12:57:31;24.70;99.90
27619;DHT22;15039;50.830;4.730;2022-10-29T13:02:53;24.90;99.90
27619;DHT22;15039;50.830;4.730;2022-10-29T13:05:40;24.90;99.90
27619;DHT22;15039;50.830;4.730;2022-10-29T13:15:37;25.30;99.90
27619;DHT22;15039;50.830;4.730;2022-10-29T13:18:19;25.30;99.90
27619;DHT22;15039;50.830;4.730;2022-10-29T13:20:48;25.20;99.90
27619;DHT22;15039;50.830;4.730;2022-10-29T13:25:52;25.50;99.90
27619;DHT22;15039;50.830;4.730;2022-10-29T13:30:50;25.30;99.90
27619;DHT22;15039;50.830;4.730;2022-10-29T13:41:21;25.20;99.90
27619;DHT22;15039;50.830;4.730;2022-10-29T13:46:46;25.00;99.90
27619;DHT22;15039;50.830;4.730;2022-10-29T13:49:24;24.90;99.90
27619;DHT22;15039;50.830;4.730;2022-10-29T13:52:04;24.80;99.90
27619;DHT22;15039;50.830;4.730;2022-10-29T13:54:48;24.80;99.90
27619;DHT22;15039;50.830;4.730;2022-10-29T13:57:22;24.70;99.90
27619;DHT22;15039;50.830;4.730;2022-10-29T13:59:57;24.60;99.90
27619;DHT22;15039;50.830;4.730;2022-10-29T14:02:31;24.60;99.90
27619;DHT22;15039;50.830;4.730;2022-10-29T14:10:21;24.40;99.90
27619;DHT22;15039;50.830;4.730;2022-10-29T14:12:52;24.40;99.90
27619;DHT22;15039;50.830;4.730;2022-10-29T14:15:19;24.40;99.90
27619;DHT22;15039;50.830;4.730;2022-10-29T14:17:45;24.30;99.90
27619;DHT22;15039;50.830;4.730;2022-10-29T14:20:25;24.20;99.90
27619;DHT22;15039;50.830;4.730;2022-10-29T14:22:51;24.20;99.90
27619;DHT22;15039;50.830;4.730;2022-10-29T14:28:15;23.90;99.90
27619;DHT22;15039;50.830;4.730;2022-10-29T14:30:46;23.80;99.90
27619;DHT22;15039;50.830;4.730;2022-10-29T14:33:17;23.70;99.90
27619;DHT22;15039;50.830;4.730;2022-10-29T14:35:43;23.60;99.90
27619;DHT22;15039;50.830;4.730;2022-10-29T14:38:11;23.60;99.90
27619;DHT22;15039;50.830;4.730;2022-10-29T14:40:45;23.60;99.90
27619;DHT22;15039;50.830;4.730;2022-10-29T14:43:19;23.40;99.90
27619;DHT22;15039;50.830;4.730;2022-10-29T14:45:47;23.40;99.90
27619;DHT22;15039;50.830;4.730;2022-10-29T14:48:14;23.20;99.90
27619;DHT22;15039;50.830;4.730;2022-10-29T14:50:46;23.20;99.90
27619;DHT22;15039;50.830;4.730;2022-10-29T14:53:39;23.10;99.90
27619;DHT22;15039;50.830;4.730;2022-10-29T14:56:08;23.10;99.90
27619;DHT22;15039;50.830;4.730;2022-10-29T14:58:36;23.10;99.90
27619;DHT22;15039;50.830;4.730;2022-10-29T15:01:05;22.90;99.90
27619;DHT22;15039;50.830;4.730;2022-10-29T15:03:34;22.90;99.90
27619;DHT22;15039;50.830;4.730;2022-10-29T15:06:16;22.80;99.90
27619;DHT22;15039;50.830;4.730;2022-10-29T15:08:45;22.70;99.90
27619;DHT22;15039;50.830;4.730;2022-10-29T15:11:34;22.70;99.90
27619;DHT22;15039;50.830;4.730;2022-10-29T15:14:04;22.50;99.90
27619;DHT22;15039;50.830;4.730;2022-10-29T15:16:31;22.40;99.90
27619;DHT22;15039;50.830;4.730;2022-10-29T15:18:58;22.30;99.90
27619;DHT22;15039;50.830;4.730;2022-10-29T15:21:33;22.20;99.90
27619;DHT22;15039;50.830;4.730;2022-10-29T15:24:05;22.20;99.90
27619;DHT22;15039;50.830;4.730;2022-10-29T15:26:34;22.20;99.90
27619;DHT22;15039;50.830;4.730;2022-10-29T15:29:00;22.10;99.90
27619;DHT22;15039;50.830;4.730;2022-10-29T15:31:32;22.10;99.90
27619;DHT22;15039;50.830;4.730;2022-10-29T15:34:12;22.20;99.90
27619;DHT22;15039;50.830;4.730;2022-10-29T15:36:47;22.20;99.90
27619;DHT22;15039;50.830;4.730;2022-10-29T15:39:25;22.10;99.90
27619;DHT22;15039;50.830;4.730;2022-10-29T15:41:56;22.00;99.90
27619;DHT22;15039;50.830;4.730;2022-10-29T15:44:28;22.00;99.90
27619;DHT22;15039;50.830;4.730;2022-10-29T15:46:57;22.00;99.90
27619;DHT22;15039;50.830;4.730;2022-10-29T15:49:27;21.90;99.90
27619;DHT22;15039;50.830;4.730;2022-10-29T15:51:54;21.90;99.90
27619;DHT22;15039;50.830;4.730;2022-10-29T15:54:21;21.80;99.90
27619;DHT22;15039;50.830;4.730;2022-10-29T15:56:48;21.70;99.90
27619;DHT22;15039;50.830;4.730;2022-10-29T15:59:18;21.80;99.90
27619;DHT22;15039;50.830;4.730;2022-10-29T16:01:47;21.80;99.90
27619;DHT22;15039;50.830;4.730;2022-10-29T16:04:13;21.70;99.90
27619;DHT22;15039;50.830;4.730;2022-10-29T16:06:38;21.60;99.90
27619;DHT22;15039;50.830;4.730;2022-10-29T16:09:04;21.50;99.90
27619;DHT22;15039;50.830;4.730;2022-10-29T16:11:30;21.50;99.90
27619;DHT22;15039;50.830;4.730;2022-10-29T16:13:56;21.40;99.90
27619;DHT22;15039;50.830;4.730;2022-10-29T16:16:31;21.30;99.90
27619;DHT22;15039;50.830;4.730;2022-10-29T16:18:57;21.30;99.90
27619;DHT22;15039;50.830;4.730;2022-10-29T16:21:25;21.20;99.90
27619;DHT22;15039;50.830;4.730;2022-10-29T16:23:51;21.30;99.90
27619;DHT22;15039;50.830;4.730;2022-10-29T16:26:19;21.20;99.90
27619;DHT22;15039;50.830;4.730;2022-10-29T16:28:45;21.10;99.90
27619;DHT22;15039;50.830;4.730;2022-10-29T16:31:18;21.00;99.90
27619;DHT22;15039;50.830;4.730;2022-10-29T16:33:50;21.00;99.90
27619;DHT22;15039;50.830;4.730;2022-10-29T16:36:16;21.10;99.90
27619;DHT22;15039;50.830;4.730;2022-10-29T16:38:42;21.10;99.90
27619;DHT22;15039;50.830;4.730;2022-10-29T16:41:12;21.00;99.90
27619;DHT22;15039;50.830;4.730;2022-10-29T16:43:38;20.90;99.90
27619;DHT22;15039;50.830;4.730;2022-10-29T16:46:04;20.90;99.90
27619;DHT22;15039;50.830;4.730;2022-10-29T16:48:32;20.80;99.90
27619;DHT22;15039;50.830;4.730;2022-10-29T16:50:57;20.80;99.90
27619;DHT22;15039;50.830;4.730;2022-10-29T16:53:23;20.90;99.90
27619;DHT22;15039;50.830;4.730;2022-10-29T16:55:49;20.80;99.90
27619;DHT22;15039;50.830;4.730;2022-10-29T16:58:16;20.80;99.90
27619;DHT22;15039;50.830;4.730;2022-10-29T17:00:42;20.80;99.90
27619;DHT22;15039;50.830;4.730;2022-10-29T17:03:13;20.60;99.90
27619;DHT22;15039;50.830;4.730;2022-10-29T17:05:41;20.70;99.90
27619;DHT22;15039;50.830;4.730;2022-10-29T17:08:09;20.70;99.90
27619;DHT22;15039;50.830;4.730;2022-10-29T17:10:35;20.60;99.90
27619;DHT22;15039;50.830;4.730;2022-10-29T17:13:01;20.60;99.90
27619;DHT22;15039;50.830;4.730;2022-10-29T17:15:27;20.50;99.90
27619;DHT22;15039;50.830;4.730;2022-10-29T17:17:53;20.40;99.90
27619;DHT22;15039;50.830;4.730;2022-10-29T17:20:19;20.40;99.90
27619;DHT22;15039;50.830;4.730;2022-10-29T17:22:45;20.40;99.90
27619;DHT22;15039;50.830;4.730;2022-10-29T17:25:11;20.20;99.90
27619;DHT22;15039;50.830;4.730;2022-10-29T17:27:38;20.00;99.90
27619;DHT22;15039;50.830;4.730;2022-10-29T17:30:04;19.90;99.90
27619;DHT22;15039;50.830;4.730;2022-10-29T17:32:30;19.80;99.90
27619;DHT22;15039;50.830;4.730;2022-10-29T17:34:57;19.80;99.90
27619;DHT22;15039;50.830;4.730;2022-10-29T17:37:27;19.90;99.90
27619;DHT22;15039;50.830;4.730;2022-10-29T17:39:53;19.90;99.90
27619;DHT22;15039;50.830;4.730;2022-10-29T17:42:20;20.10;99.90
27619;DHT22;15039;50.830;4.730;2022-10-29T17:44:46;19.80;99.90
27619;DHT22;15039;50.830;4.730;2022-10-29T17:47:11;19.80;99.90
27619;DHT22;15039;50.830;4.730;2022-10-29T17:49:37;19.70;99.90
27619;DHT22;15039;50.830;4.730;2022-10-29T17:52:04;19.70;99.90
27619;DHT22;15039;50.830;4.730;2022-10-29T17:54:30;19.60;99.90
27619;DHT22;15039;50.830;4.730;2022-10-29T17:56:56;19.50;99.90
27619;DHT22;15039;50.830;4.730;2022-10-29T17:59:22;19.60;99.90
27619;DHT22;15039;50.830;4.730;2022-10-29T18:01:47;19.50;99.90
27619;DHT22;15039;50.830;4.730;2022-10-29T18:04:13;19.40;99.90
27619;DHT22;15039;50.830;4.730;2022-10-29T18:06:39;19.40;99.90
27619;DHT22;15039;50.830;4.730;2022-10-29T18:09:06;19.50;99.90
27619;DHT22;15039;50.830;4.730;2022-10-29T18:11:32;19.60;99.90
27619;DHT22;15039;50.830;4.730;2022-10-29T18:13:57;19.70;99.90
27619;DHT22;15039;50.830;4.730;2022-10-29T18:16:25;19.70;99.90